Time;durP1;ratioP1;P1;durP2;ratioP2;P2;SDS_P1;SDS_P2;PMS_P1;PMS_P2;Temp;Humidity;BMP_temperature;BMP_pressure;BME280_temperature;BME280_humidity;BME280_pressure;Samples;Min_cycle;Max_cycle;Signal;HPM_P1;HPM_P2
2021/01/13 00:05:13;;;;;;;21.55;17.30;;;;;;;;;;4538994;28;20065;-57
2021/01/13 00:07:42;;;;;;;26.02;20.23;;;;;;;;;;4199673;34;20122;-56
2021/01/13 00:10:09;;;;;;;38.47;26.92;;;;;;;;;;4193483;34;20205;-57
2021/01/13 00:12:36;;;;;;;28.58;21.25;;;;;;;;;;4191129;34;20194;-56
2021/01/13 00:15:04;;;;;;;27.00;21.50;;;;;;;;;;4204208;34;20206;-57
2021/01/13 00:17:30;;;;;;;89.18;59.35;;;;;;;;;;4204535;34;20128;-57
2021/01/13 00:19:55;;;;;;;91.72;63.42;;;;;;;;;;4204311;34;20120;-57
2021/01/13 00:22:21;;;;;;;65.47;47.70;;;;;;;;;;4196749;34;20101;-56
2021/01/13 00:24:47;;;;;;;38.47;29.08;;;;;;;;;;4190491;34;20124;-57
2021/01/13 00:27:13;;;;;;;29.52;23.92;;;;;;;;;;4190638;34;20138;-57
2021/01/13 00:29:39;;;;;;;24.40;20.15;;;;;;;;;;4190325;34;20137;-58
2021/01/13 00:32:05;;;;;;;27.58;19.02;;;;;;;;;;4190482;34;20459;-57
2021/01/13 00:34:31;;;;;;;24.55;20.33;;;;;;;;;;4190358;34;20122;-57
2021/01/13 00:36:57;;;;;;;32.95;25.60;;;;;;;;;;4190474;34;20106;-57
2021/01/13 00:39:23;;;;;;;21.20;17.83;;;;;;;;;;4198907;34;20097;-57
2021/01/13 00:41:48;;;;;;;22.60;18.90;;;;;;;;;;4196563;34;20514;-57
2021/01/13 00:44:14;;;;;;;23.98;18.30;;;;;;;;;;4196434;34;20106;-58
2021/01/13 00:46:42;;;;;;;24.77;19.08;;;;;;;;;;4205952;34;20544;-57
2021/01/13 00:49:08;;;;;;;21.85;18.52;;;;;;;;;;4196125;34;20129;-57
2021/01/13 00:51:39;;;;;;;27.02;21.85;;;;;;;;;;4192454;34;20121;-56
2021/01/13 00:54:05;;;;;;;26.35;20.92;;;;;;;;;;4192283;34;20198;-57
2021/01/13 00:56:36;;;;;;;25.65;19.87;;;;;;;;;;4195669;34;20108;-57
2021/01/13 00:59:02;;;;;;;37.03;22.33;;;;;;;;;;4206035;34;20106;-57
2021/01/13 01:01:28;;;;;;;29.83;22.25;;;;;;;;;;4206120;34;20144;-57
2021/01/13 01:03:54;;;;;;;43.65;23.83;;;;;;;;;;4205935;34;20113;-57
2021/01/13 01:06:20;;;;;;;31.33;23.87;;;;;;;;;;4206082;34;20454;-56
2021/01/13 01:08:46;;;;;;;29.75;22.98;;;;;;;;;;4206005;34;20112;-57
2021/01/13 01:11:17;;;;;;;29.45;21.62;;;;;;;;;;4206031;34;20102;-57
2021/01/13 01:13:43;;;;;;;27.70;21.98;;;;;;;;;;4201856;34;20126;-57
2021/01/13 01:16:09;;;;;;;26.77;20.25;;;;;;;;;;4192132;34;20543;-58
2021/01/13 01:18:35;;;;;;;26.77;21.55;;;;;;;;;;4192225;34;20121;-57
2021/01/13 01:21:01;;;;;;;30.25;21.37;;;;;;;;;;4192111;34;20504;-57
2021/01/13 01:23:27;;;;;;;28.25;22.77;;;;;;;;;;4192129;34;20125;-57
2021/01/13 01:25:52;;;;;;;28.20;21.58;;;;;;;;;;4179425;34;20137;-57
2021/01/13 01:28:18;;;;;;;28.48;19.80;;;;;;;;;;4192173;34;20113;-57
2021/01/13 01:30:44;;;;;;;23.98;19.70;;;;;;;;;;4191916;34;20538;-58
2021/01/13 01:33:10;;;;;;;26.73;21.00;;;;;;;;;;4192155;34;20190;-57
2021/01/13 01:35:36;;;;;;;25.65;20.65;;;;;;;;;;4192146;34;20095;-57
2021/01/13 01:38:02;;;;;;;27.25;19.95;;;;;;;;;;4192061;34;20270;-57
2021/01/13 01:40:28;;;;;;;26.65;21.30;;;;;;;;;;4191808;34;20126;-57
2021/01/13 01:42:54;;;;;;;29.12;23.27;;;;;;;;;;4191957;34;20613;-57
2021/01/13 01:45:22;;;;;;;26.00;21.25;;;;;;;;;;4192257;34;20202;-56
2021/01/13 01:48:10;;;;;;;24.30;20.02;;;;;;;;;;4191941;34;20114;-57
2021/01/13 01:50:37;;;;;;;20.65;18.08;;;;;;;;;;4192022;34;20535;-57
2021/01/13 01:53:17;;;;;;;26.80;21.55;;;;;;;;;;4191913;34;20110;-57
2021/01/13 01:56:10;;;;;;;32.58;23.77;;;;;;;;;;4191416;34;20233;-57
2021/01/13 01:58:36;;;;;;;47.75;23.65;;;;;;;;;;4191986;34;20102;-57
2021/01/13 02:01:04;;;;;;;24.73;21.23;;;;;;;;;;4191597;34;20459;-57
2021/01/13 02:03:35;;;;;;;28.12;20.60;;;;;;;;;;4192091;34;20210;-57
2021/01/13 02:06:07;;;;;;;24.67;19.40;;;;;;;;;;4205518;34;20124;-57
2021/01/13 02:08:38;;;;;;;31.40;22.00;;;;;;;;;;4205772;34;20108;-57
2021/01/13 02:11:05;;;;;;;29.40;22.80;;;;;;;;;;4205432;34;20450;-57
2021/01/13 02:13:31;;;;;;;29.45;23.38;;;;;;;;;;4205594;34;20201;-57
2021/01/13 02:15:57;;;;;;;30.77;22.90;;;;;;;;;;4205427;34;20114;-57
2021/01/13 02:18:23;;;;;;;29.45;23.85;;;;;;;;;;4205575;34;20523;-57
2021/01/13 02:20:53;;;;;;;26.95;22.95;;;;;;;;;;4192422;34;20109;-57
2021/01/13 02:23:29;;;;;;;36.47;24.17;;;;;;;;;;4205824;34;20094;-58
2021/01/13 02:26:22;;;;;;;30.12;25.70;;;;;;;;;;4205539;34;20117;-57
2021/01/13 02:28:56;;;;;;;30.23;25.33;;;;;;;;;;4205433;34;20462;-62
2021/01/13 02:31:28;;;;;;;35.50;25.83;;;;;;;;;;4205642;34;20533;-59
2021/01/13 02:34:02;;;;;;;29.45;24.42;;;;;;;;;;4205316;34;20100;-59
2021/01/13 02:37:00;;;;;;;28.80;24.35;;;;;;;;;;4192580;34;20089;-59
2021/01/13 02:39:25;;;;;;;29.55;24.65;;;;;;;;;;4194706;34;20121;-60
2021/01/13 02:41:51;;;;;;;37.90;24.50;;;;;;;;;;4190911;34;20521;-57
2021/01/13 02:44:17;;;;;;;31.67;26.37;;;;;;;;;;4194682;34;20125;-58
2021/01/13 02:47:01;;;;;;;35.72;23.62;;;;;;;;;;4194748;34;20093;-59
2021/01/13 02:49:40;;;;;;;30.42;21.52;;;;;;;;;;4219137;34;20198;-57
2021/01/13 02:52:24;;;;;;;26.77;21.73;;;;;;;;;;4219438;34;20117;-55
2021/01/13 02:54:56;;;;;;;26.58;21.45;;;;;;;;;;4206039;34;20613;-60
2021/01/13 02:57:26;;;;;;;26.62;20.52;;;;;;;;;;4206428;34;20521;-58
2021/01/13 02:59:54;;;;;;;29.25;21.98;;;;;;;;;;4218947;34;20525;-59
2021/01/13 03:02:20;;;;;;;32.55;21.77;;;;;;;;;;4206276;34;20101;-59
2021/01/13 03:04:46;;;;;;;35.20;24.02;;;;;;;;;;4218958;34;20521;-58
2021/01/13 03:07:14;;;;;;;31.48;24.27;;;;;;;;;;4218583;34;20121;-48
2021/01/13 03:09:47;;;;;;;31.27;22.67;;;;;;;;;;4218508;34;20121;-56
2021/01/13 03:12:24;;;;;;;34.33;24.00;;;;;;;;;;4219190;34;20124;-57
2021/01/13 03:14:54;;;;;;;32.00;24.58;;;;;;;;;;4218870;34;20205;-58
2021/01/13 03:17:23;;;;;;;35.95;24.80;;;;;;;;;;4219131;34;20113;-59
2021/01/13 03:20:29;;;;;;;36.45;23.60;;;;;;;;;;4218809;34;20594;-58
2021/01/13 03:23:02;;;;;;;44.70;24.23;;;;;;;;;;4218890;34;20188;-59
2021/01/13 03:25:28;;;;;;;33.92;24.17;;;;;;;;;;4218732;34;20514;-59
2021/01/13 03:27:54;;;;;;;37.78;23.65;;;;;;;;;;4194424;34;20104;-58
2021/01/13 03:30:20;;;;;;;31.95;22.98;;;;;;;;;;4218865;34;20133;-58
2021/01/13 03:33:01;;;;;;;37.53;22.15;;;;;;;;;;4206116;34;20109;-58
2021/01/13 03:35:36;;;;;;;26.33;21.37;;;;;;;;;;4218714;34;20113;-57
2021/01/13 03:38:02;;;;;;;30.27;23.57;;;;;;;;;;4206471;34;20113;-57
2021/01/13 03:40:31;;;;;;;38.58;24.30;;;;;;;;;;4218590;34;20283;-58
2021/01/13 03:42:58;;;;;;;31.98;24.73;;;;;;;;;;4218677;34;20107;-58
2021/01/13 03:45:32;;;;;;;28.75;25.40;;;;;;;;;;4218666;34;20220;-56
2021/01/13 03:48:22;;;;;;;25.62;19.30;;;;;;;;;;4218872;34;20102;-59
2021/01/13 03:50:48;;;;;;;26.45;21.77;;;;;;;;;;4218502;34;20133;-58
2021/01/13 03:53:14;;;;;;;25.58;20.62;;;;;;;;;;4194112;34;20736;-58
2021/01/13 03:55:41;;;;;;;24.48;19.67;;;;;;;;;;4218317;34;20457;-57
2021/01/13 03:58:45;;;;;;;26.70;21.52;;;;;;;;;;4218785;34;20108;-57
2021/01/13 04:01:35;;;;;;;30.88;23.38;;;;;;;;;;4218339;34;20533;-57
2021/01/13 04:04:34;;;;;;;27.30;20.90;;;;;;;;;;4205436;34;20465;-57
2021/01/13 04:07:01;;;;;;;30.27;21.40;;;;;;;;;;4218401;34;20212;-57
2021/01/13 04:09:30;;;;;;;24.60;21.00;;;;;;;;;;4218244;34;20105;-57
2021/01/13 04:12:08;;;;;;;27.08;21.77;;;;;;;;;;4218613;34;20109;-57
2021/01/13 04:14:55;;;;;;;24.63;21.20;;;;;;;;;;4218311;34;20129;-56
2021/01/13 04:17:22;;;;;;;26.75;22.45;;;;;;;;;;4218694;34;20112;-57
2021/01/13 04:19:48;;;;;;;29.37;25.10;;;;;;;;;;4219112;34;20580;-57
2021/01/13 04:22:15;;;;;;;28.48;23.67;;;;;;;;;;4220473;34;20603;-57
2021/01/13 04:24:42;;;;;;;25.45;22.08;;;;;;;;;;4220336;34;20116;-57
2021/01/13 04:27:10;;;;;;;30.45;21.85;;;;;;;;;;4207707;34;20135;-56
2021/01/13 04:29:36;;;;;;;34.78;22.02;;;;;;;;;;4220183;34;20093;-57
2021/01/13 04:32:03;;;;;;;35.95;22.30;;;;;;;;;;4220305;34;20098;-58
2021/01/13 04:34:30;;;;;;;24.85;20.98;;;;;;;;;;4220212;34;20179;-57
2021/01/13 04:36:56;;;;;;;24.77;21.85;;;;;;;;;;4220289;34;20217;-57
2021/01/13 04:39:22;;;;;;;25.80;20.60;;;;;;;;;;4220152;34;20101;-57
2021/01/13 04:41:59;;;;;;;26.00;20.92;;;;;;;;;;4207511;34;20086;-57
2021/01/13 04:44:30;;;;;;;27.00;21.65;;;;;;;;;;4220182;34;20105;-56
2021/01/13 04:46:55;;;;;;;26.52;22.42;;;;;;;;;;4220234;34;20123;-57
2021/01/13 04:49:21;;;;;;;25.62;20.90;;;;;;;;;;4207472;34;20509;-57
2021/01/13 04:51:47;;;;;;;24.48;20.40;;;;;;;;;;4195680;34;20517;-57
2021/01/13 04:54:18;;;;;;;31.48;23.40;;;;;;;;;;4220013;34;20101;-57
2021/01/13 04:56:43;;;;;;;30.60;23.00;;;;;;;;;;4220047;34;20494;-57
2021/01/13 04:59:16;;;;;;;26.20;22.00;;;;;;;;;;4219996;34;20133;-57
2021/01/13 05:01:53;;;;;;;30.20;24.90;;;;;;;;;;4219953;34;20117;-56
2021/01/13 05:04:56;;;;;;;30.33;25.27;;;;;;;;;;4219856;34;20225;-57
2021/01/13 05:07:31;;;;;;;42.42;33.85;;;;;;;;;;4197261;34;20473;-57
2021/01/13 05:10:09;;;;;;;47.13;36.05;;;;;;;;;;4219902;34;20101;-57
2021/01/13 05:12:56;;;;;;;32.75;26.15;;;;;;;;;;4220309;34;20522;-57
2021/01/13 05:15:26;;;;;;;30.55;23.95;;;;;;;;;;4219977;34;20205;-57
2021/01/13 05:18:09;;;;;;;39.55;33.67;;;;;;;;;;4219864;34;20125;-57
2021/01/13 05:20:35;;;;;;;38.65;31.00;;;;;;;;;;4219659;34;20243;-57
2021/01/13 05:23:02;;;;;;;45.10;33.58;;;;;;;;;;4219824;34;20120;-57
2021/01/13 05:25:45;;;;;;;66.93;46.88;;;;;;;;;;4219732;34;20189;-57
2021/01/13 05:28:12;;;;;;;73.03;43.97;;;;;;;;;;4219840;34;20140;-55
2021/01/13 05:30:42;;;;;;;59.38;44.25;;;;;;;;;;4219021;34;20093;-57
2021/01/13 05:33:13;;;;;;;58.85;43.15;;;;;;;;;;4219801;34;20449;-57
2021/01/13 05:35:42;;;;;;;87.95;62.05;;;;;;;;;;4219737;34;20153;-56
2021/01/13 05:38:16;;;;;;;81.25;58.40;;;;;;;;;;4219761;34;20181;-57
2021/01/13 05:40:46;;;;;;;59.33;43.97;;;;;;;;;;4219637;34;20475;-57
2021/01/13 05:43:12;;;;;;;53.78;40.10;;;;;;;;;;4219750;34;20106;-57
2021/01/13 05:45:39;;;;;;;53.15;42.30;;;;;;;;;;4219551;34;20137;-57
2021/01/13 05:48:14;;;;;;;51.72;39.72;;;;;;;;;;4219703;34;20205;-57
2021/01/13 05:50:40;;;;;;;53.70;41.60;;;;;;;;;;4219657;34;20556;-57
2021/01/13 05:53:06;;;;;;;54.63;44.22;;;;;;;;;;4219683;34;20120;-57
2021/01/13 05:55:32;;;;;;;63.30;45.15;;;;;;;;;;4219503;34;20513;-57
2021/01/13 05:57:59;;;;;;;66.22;49.55;;;;;;;;;;4219577;34;20105;-57
2021/01/13 06:00:27;;;;;;;86.12;61.75;;;;;;;;;;4219499;34;20121;-58
2021/01/13 06:02:59;;;;;;;97.40;68.70;;;;;;;;;;4219720;34;20113;-57
2021/01/13 06:05:26;;;;;;;122.05;81.78;;;;;;;;;;4219303;34;20129;-57
2021/01/13 06:07:53;;;;;;;148.05;94.05;;;;;;;;;;4219474;34;20098;-57
2021/01/13 06:10:19;;;;;;;162.73;107.18;;;;;;;;;;4206467;34;20124;-57
2021/01/13 06:12:46;;;;;;;130.52;88.07;;;;;;;;;;4219431;34;20504;-57
2021/01/13 06:15:13;;;;;;;129.48;88.00;;;;;;;;;;4219283;34;20161;-56
2021/01/13 06:17:58;;;;;;;118.47;82.18;;;;;;;;;;4219423;34;20113;-57
2021/01/13 06:20:26;;;;;;;112.22;76.05;;;;;;;;;;4219147;34;20121;-57
2021/01/13 06:22:52;;;;;;;112.80;75.97;;;;;;;;;;4219323;34;20465;-57
2021/01/13 06:25:28;;;;;;;95.25;66.43;;;;;;;;;;4219259;34;20662;-57
2021/01/13 06:27:57;;;;;;;;;;;;;;;;;;4219977;34;20133;-57
2021/01/13 06:30:33;;;;;;;83.40;57.53;;;;;;;;;;4219341;34;19989;-56
2021/01/13 06:33:22;;;;;;;74.53;55.78;;;;;;;;;;4219251;34;20222;-57
2021/01/13 06:36:13;;;;;;;68.18;52.10;;;;;;;;;;4219512;34;20105;-57
2021/01/13 06:38:55;;;;;;;80.32;52.17;;;;;;;;;;4206571;34;20126;-56
2021/01/13 06:41:21;;;;;;;72.50;51.97;;;;;;;;;;4219026;34;20517;-56
2021/01/13 06:44:01;;;;;;;89.57;57.25;;;;;;;;;;4219218;34;20086;-57
2021/01/13 06:46:27;;;;;;;87.10;61.45;;;;;;;;;;4219211;34;20093;-57
2021/01/13 06:48:54;;;;;;;88.60;62.55;;;;;;;;;;4219006;34;20097;-58
2021/01/13 06:51:20;;;;;;;90.10;62.50;;;;;;;;;;4219283;34;20477;-56
2021/01/13 06:53:47;;;;;;;92.07;61.10;;;;;;;;;;4206484;34;20113;-57
2021/01/13 06:56:14;;;;;;;86.68;59.15;;;;;;;;;;4218973;34;20125;-57
2021/01/13 06:58:54;;;;;;;69.93;49.88;;;;;;;;;;4218960;34;20094;-56
2021/01/13 07:01:20;;;;;;;55.45;42.50;;;;;;;;;;4219137;34;20090;-57
2021/01/13 07:03:46;;;;;;;59.58;45.58;;;;;;;;;;4218965;34;20120;-57
2021/01/13 07:06:11;;;;;;;57.22;41.42;;;;;;;;;;4205899;34;20136;-57
2021/01/13 07:08:37;;;;;;;51.40;40.53;;;;;;;;;;4219220;34;20261;-56
2021/01/13 07:11:08;;;;;;;59.83;40.83;;;;;;;;;;4218957;34;20132;-57
2021/01/13 07:13:39;;;;;;;58.38;44.08;;;;;;;;;;4218985;34;20125;-57
2021/01/13 07:16:05;;;;;;;72.35;52.15;;;;;;;;;;4206339;34;20180;-57
2021/01/13 07:18:31;;;;;;;79.32;57.15;;;;;;;;;;4218949;34;20198;-57
2021/01/13 07:21:08;;;;;;;82.65;60.28;;;;;;;;;;4218561;34;20170;-57
2021/01/13 07:23:35;;;;;;;90.80;69.57;;;;;;;;;;4207091;34;20144;-56
2021/01/13 07:26:01;;;;;;;91.82;74.65;;;;;;;;;;4218597;34;20502;-58
2021/01/13 07:28:28;;;;;;;91.55;70.37;;;;;;;;;;4218794;34;20117;-58
2021/01/13 07:30:54;;;;;;;96.95;76.87;;;;;;;;;;4194533;34;20096;-57
2021/01/13 07:33:20;;;;;;;109.35;80.70;;;;;;;;;;4206164;34;20129;-56
2021/01/13 07:35:47;;;;;;;106.07;82.60;;;;;;;;;;4218733;34;20551;-58
2021/01/13 07:38:22;;;;;;;115.78;85.12;;;;;;;;;;4218771;34;20552;-57
2021/01/13 07:41:00;;;;;;;86.12;70.35;;;;;;;;;;4194291;34;20105;-59
2021/01/13 07:43:41;;;;;;;86.37;60.53;;;;;;;;;;4218674;34;20136;-56
2021/01/13 07:46:08;;;;;;;76.47;60.20;;;;;;;;;;4218525;34;20617;-57
2021/01/13 07:49:06;;;;;;;74.95;55.58;;;;;;;;;;4205827;34;20141;-58
2021/01/13 07:52:02;;;;;;;80.18;55.75;;;;;;;;;;4205783;34;20090;-57
2021/01/13 07:54:29;;;;;;;58.97;41.83;;;;;;;;;;4207273;34;20193;-57
2021/01/13 07:57:05;;;;;;;59.10;44.92;;;;;;;;;;4218493;34;20110;-57
2021/01/13 07:59:35;;;;;;;61.35;43.45;;;;;;;;;;4218661;34;20458;-57
2021/01/13 08:02:35;;;;;;;59.15;41.42;;;;;;;;;;4218454;34;20101;-57
2021/01/13 08:05:25;;;;;;;55.95;39.63;;;;;;;;;;4217980;34;20109;-57
2021/01/13 08:08:07;;;;;;;56.22;41.45;;;;;;;;;;4218425;34;20634;-57
2021/01/13 08:10:37;;;;;;;50.30;38.17;;;;;;;;;;4218433;34;20113;-57
2021/01/13 08:13:39;;;;;;;48.67;37.47;;;;;;;;;;4218307;34;20108;-59
2021/01/13 08:16:33;;;;;;;56.05;32.63;;;;;;;;;;4218626;34;20508;-60
2021/01/13 08:19:45;;;;;;;40.88;32.25;;;;;;;;;;4218414;34;20534;-60
2021/01/13 08:22:19;;;;;;;42.28;32.33;;;;;;;;;;4205450;34;20105;-59
2021/01/13 08:24:45;;;;;;;31.95;27.87;;;;;;;;;;4218403;34;20455;-59
2021/01/13 08:27:11;;;;;;;41.33;33.30;;;;;;;;;;4194008;34;20109;-58
2021/01/13 08:29:39;;;;;;;42.10;34.10;;;;;;;;;;4218116;34;20144;-57
2021/01/13 08:32:11;;;;;;;49.17;39.42;;;;;;;;;;4205332;34;20117;-58
2021/01/13 08:34:44;;;;;;;49.85;41.45;;;;;;;;;;4217952;34;20536;-55
2021/01/13 08:37:10;;;;;;;62.78;48.80;;;;;;;;;;4218108;34;20117;-57
2021/01/13 08:39:38;;;;;;;86.68;67.22;;;;;;;;;;4217875;34;20201;-57
2021/01/13 08:42:26;;;;;;;89.62;67.30;;;;;;;;;;4217897;34;20129;-57
2021/01/13 08:44:56;;;;;;;66.12;48.80;;;;;;;;;;4217921;34;20121;-56
2021/01/13 08:47:23;;;;;;;50.60;43.22;;;;;;;;;;4218023;34;20473;-57
2021/01/13 08:49:49;;;;;;;45.00;38.58;;;;;;;;;;4217917;34;20453;-56
2021/01/13 08:52:21;;;;;;;47.92;40.50;;;;;;;;;;4217935;34;20513;-56
2021/01/13 08:54:57;;;;;;;45.10;38.75;;;;;;;;;;4204763;34;20453;-56
2021/01/13 08:57:24;;;;;;;49.08;42.35;;;;;;;;;;4217818;34;20605;-58
2021/01/13 08:59:50;;;;;;;42.67;37.05;;;;;;;;;;4217738;34;20101;-56
2021/01/13 09:02:25;;;;;;;47.42;35.60;;;;;;;;;;4217858;34;20090;-55
2021/01/13 09:04:53;;;;;;;40.95;32.33;;;;;;;;;;4217779;34;20626;-55
2021/01/13 09:07:20;;;;;;;40.28;33.70;;;;;;;;;;4215478;34;20094;-56
2021/01/13 09:10:02;;;;;;;34.63;30.02;;;;;;;;;;4215618;34;20200;-57
2021/01/13 09:12:45;;;;;;;34.08;28.87;;;;;;;;;;4210218;34;20442;-59
2021/01/13 09:15:11;;;;;;;34.92;27.77;;;;;;;;;;4205795;34;20110;-57
2021/01/13 09:17:38;;;;;;;36.35;27.17;;;;;;;;;;4192659;34;20184;-57
2021/01/13 09:20:14;;;;;;;31.00;25.45;;;;;;;;;;4205490;34;20136;-58
2021/01/13 09:22:50;;;;;;;;;;;;;;;;;;4205977;34;20102;-57
2021/01/13 09:25:17;;;;;;;38.70;27.48;;;;;;;;;;4205916;34;20085;-58
2021/01/13 09:27:44;;;;;;;30.35;26.48;;;;;;;;;;4205681;34;20113;-57
2021/01/13 09:30:21;;;;;;;32.53;26.98;;;;;;;;;;4205565;34;20126;-59
2021/01/13 09:32:53;;;;;;;34.35;26.17;;;;;;;;;;4205822;34;20113;-59
2021/01/13 09:35:29;;;;;;;36.80;29.50;;;;;;;;;;4205466;34;20114;-59
2021/01/13 09:38:00;;;;;;;38.05;29.77;;;;;;;;;;4205441;34;20186;-59
2021/01/13 09:40:59;;;;;;;38.75;29.52;;;;;;;;;;4205507;34;20113;-59
2021/01/13 09:43:32;;;;;;;38.30;30.27;;;;;;;;;;4215151;34;20407;-59
2021/01/13 09:46:23;;;;;;;47.22;29.75;;;;;;;;;;4219892;34;20127;-59
2021/01/13 09:49:09;;;;;;;41.35;30.10;;;;;;;;;;4219392;34;20101;-58
2021/01/13 09:51:36;;;;;;;36.60;29.80;;;;;;;;;;4218248;34;20449;-59
2021/01/13 09:54:03;;;;;;;38.10;31.87;;;;;;;;;;4208949;34;20118;-59
2021/01/13 09:56:30;;;;;;;38.53;31.27;;;;;;;;;;4205575;34;20541;-59
2021/01/13 09:58:56;;;;;;;35.63;31.05;;;;;;;;;;4205172;34;20182;-59
2021/01/13 10:01:26;;;;;;;38.10;32.55;;;;;;;;;;4205239;34;20097;-59
2021/01/13 10:03:57;;;;;;;42.13;34.85;;;;;;;;;;4192263;34;20106;-56
2021/01/13 10:06:26;;;;;;;43.40;36.88;;;;;;;;;;4205166;34;20110;-56
2021/01/13 10:08:52;;;;;;;43.47;35.42;;;;;;;;;;4205017;34;20509;-57
2021/01/13 10:11:19;;;;;;;41.85;34.17;;;;;;;;;;4205230;34;20477;-58
2021/01/13 10:13:46;;;;;;;38.40;32.55;;;;;;;;;;4204989;34;20121;-57
2021/01/13 10:16:12;;;;;;;38.50;32.70;;;;;;;;;;4205248;34;20224;-56
2021/01/13 10:18:58;;;;;;;43.53;35.15;;;;;;;;;;4204668;34;20129;-60
2021/01/13 10:21:25;;;;;;;51.00;32.92;;;;;;;;;;4205157;34;20122;-57
2021/01/13 10:23:51;;;;;;;41.78;33.30;;;;;;;;;;4192257;34;20121;-59
2021/01/13 10:26:17;;;;;;;46.45;36.47;;;;;;;;;;4205223;34;20098;-57
2021/01/13 10:28:44;;;;;;;48.35;38.13;;;;;;;;;;4205203;34;20094;-61
2021/01/13 10:31:11;;;;;;;57.75;47.30;;;;;;;;;;4204915;34;20522;-61
2021/01/13 10:33:43;;;;;;;60.42;45.42;;;;;;;;;;4192221;34;20645;-58
2021/01/13 10:36:09;;;;;;;53.75;41.10;;;;;;;;;;4205243;34;20099;-57
2021/01/13 10:38:36;;;;;;;68.68;51.40;;;;;;;;;;4205175;34;20101;-59
2021/01/13 10:41:03;;;;;;;65.72;50.25;;;;;;;;;;4181089;34;20112;-58
2021/01/13 10:43:29;;;;;;;78.75;59.33;;;;;;;;;;4205089;34;20168;-58
2021/01/13 10:45:58;;;;;;;62.92;47.67;;;;;;;;;;4180851;34;20106;-60
2021/01/13 10:48:24;;;;;;;53.92;41.10;;;;;;;;;;4204940;34;20117;-59
2021/01/13 10:50:50;;;;;;;48.75;40.92;;;;;;;;;;4204870;34;20518;-59
2021/01/13 10:53:16;;;;;;;54.28;43.25;;;;;;;;;;4186794;34;20121;-61
2021/01/13 10:55:45;;;;;;;55.58;43.72;;;;;;;;;;4205096;34;20125;-61
2021/01/13 10:58:12;;;;;;;59.58;44.85;;;;;;;;;;4192312;34;20091;-61
2021/01/13 11:00:38;;;;;;;56.05;43.13;;;;;;;;;;4191766;34;20181;-59
2021/01/13 11:03:04;;;;;;;60.30;43.60;;;;;;;;;;4205062;34;20105;-59
2021/01/13 11:05:36;;;;;;;55.33;40.55;;;;;;;;;;4205078;34;20130;-58
2021/01/13 11:08:03;;;;;;;53.60;40.38;;;;;;;;;;4204319;34;20554;-59
2021/01/13 11:10:29;;;;;;;56.03;41.45;;;;;;;;;;4204828;34;20144;-61
2021/01/13 11:13:02;;;;;;;44.70;35.55;;;;;;;;;;4204817;34;20514;-60
2021/01/13 11:15:28;;;;;;;39.58;33.17;;;;;;;;;;4205157;34;20128;-60
2021/01/13 11:17:55;;;;;;;41.70;35.70;;;;;;;;;;4204952;34;20101;-59
2021/01/13 11:20:21;;;;;;;41.13;32.88;;;;;;;;;;4204993;34;20110;-60
2021/01/13 11:22:49;;;;;;;40.70;32.55;;;;;;;;;;4183783;34;20094;-60
2021/01/13 11:25:19;;;;;;;33.58;27.35;;;;;;;;;;4205068;34;20597;-59
2021/01/13 11:27:58;;;;;;;36.75;29.73;;;;;;;;;;4204487;34;20094;-60
2021/01/13 11:30:24;;;;;;;32.85;27.30;;;;;;;;;;4192497;34;20103;-60
2021/01/13 11:32:55;;;;;;;36.65;27.73;;;;;;;;;;4204640;34;20110;-59
2021/01/13 11:35:31;;;;;;;32.88;26.65;;;;;;;;;;4204896;34;20407;-58
2021/01/13 11:38:34;;;;;;;31.77;24.85;;;;;;;;;;4204450;34;20157;-61
2021/01/13 11:41:29;;;;;;;32.50;25.00;;;;;;;;;;4204435;34;20125;-59
2021/01/13 11:44:13;;;;;;;34.17;25.70;;;;;;;;;;4195410;34;20129;-60
2021/01/13 11:46:47;;;;;;;34.63;25.77;;;;;;;;;;4204600;34;20129;-59
2021/01/13 11:49:30;;;;;;;31.87;25.88;;;;;;;;;;4204468;34;20439;-59
2021/01/13 11:51:56;;;;;;;31.48;25.80;;;;;;;;;;4205505;34;20548;-58
2021/01/13 11:54:23;;;;;;;31.10;24.70;;;;;;;;;;4218542;34;20129;-56
2021/01/13 11:56:50;;;;;;;27.00;24.10;;;;;;;;;;4218551;34;20145;-57
2021/01/13 11:59:26;;;;;;;26.08;22.87;;;;;;;;;;4218370;34;20093;-60
2021/01/13 12:01:52;;;;;;;26.50;23.60;;;;;;;;;;4205187;34;20126;-58
2021/01/13 12:04:18;;;;;;;28.02;25.05;;;;;;;;;;4205328;34;20109;-59
2021/01/13 12:07:14;;;;;;;28.12;24.98;;;;;;;;;;4205521;34;20121;-56
2021/01/13 12:09:40;;;;;;;27.20;23.27;;;;;;;;;;4208789;34;20216;-57
2021/01/13 12:12:07;;;;;;;30.27;24.30;;;;;;;;;;4217945;34;20513;-58
2021/01/13 12:14:42;;;;;;;30.37;24.42;;;;;;;;;;4205552;34;20105;-58
2021/01/13 12:17:08;;;;;;;35.65;23.15;;;;;;;;;;4218371;34;20164;-57
2021/01/13 12:19:38;;;;;;;28.20;24.40;;;;;;;;;;4218120;34;20227;-57
2021/01/13 12:22:04;;;;;;;46.53;24.42;;;;;;;;;;4217958;34;20632;-61
2021/01/13 12:24:42;;;;;;;28.80;24.12;;;;;;;;;;4205517;34;20113;-58
2021/01/13 12:27:21;;;;;;;28.52;24.87;;;;;;;;;;4218097;34;20133;-57
2021/01/13 12:30:15;;;;;;;29.50;24.30;;;;;;;;;;4218010;34;20533;-59
2021/01/13 12:32:41;;;;;;;29.45;24.95;;;;;;;;;;4207227;34;20232;-59
2021/01/13 12:35:10;;;;;;;31.27;26.83;;;;;;;;;;4218064;34;20141;-58
2021/01/13 12:37:51;;;;;;;34.97;27.73;;;;;;;;;;4218051;34;20450;-60
2021/01/13 12:40:30;;;;;;;33.10;28.30;;;;;;;;;;4218418;34;20110;-60
2021/01/13 12:42:56;;;;;;;30.92;26.17;;;;;;;;;;4219650;34;20542;-58
2021/01/13 12:45:22;;;;;;;32.92;27.42;;;;;;;;;;4220381;34;20153;-60
2021/01/13 12:47:55;;;;;;;32.17;27.80;;;;;;;;;;4220140;34;20124;-58
2021/01/13 12:50:21;;;;;;;36.67;26.85;;;;;;;;;;4219967;34;20110;-58
2021/01/13 12:52:50;;;;;;;30.70;26.00;;;;;;;;;;4214207;34;20137;-58
2021/01/13 12:55:16;;;;;;;33.28;27.45;;;;;;;;;;4193753;34;20109;-57
2021/01/13 12:57:42;;;;;;;38.75;27.73;;;;;;;;;;4208636;34;20172;-56
2021/01/13 13:00:08;;;;;;;31.62;27.77;;;;;;;;;;4219368;34;20124;-59
2021/01/13 13:02:35;;;;;;;38.33;28.75;;;;;;;;;;4202958;34;20094;-59
2021/01/13 13:05:00;;;;;;;37.42;28.15;;;;;;;;;;4205768;34;20117;-58
2021/01/13 13:07:26;;;;;;;30.37;26.27;;;;;;;;;;4205745;34;20510;-59
2021/01/13 13:09:52;;;;;;;34.78;28.17;;;;;;;;;;4205521;34;20497;-58
2021/01/13 13:12:18;;;;;;;32.00;28.40;;;;;;;;;;4208430;34;20205;-58
2021/01/13 13:14:44;;;;;;;33.55;27.85;;;;;;;;;;4219734;34;20121;-58
2021/01/13 13:17:10;;;;;;;31.12;27.25;;;;;;;;;;4217421;34;20254;-59
2021/01/13 13:19:36;;;;;;;34.50;30.73;;;;;;;;;;4205870;34;20121;-57
2021/01/13 13:22:02;;;;;;;35.33;31.52;;;;;;;;;;4205638;34;20230;-57
2021/01/13 13:24:28;;;;;;;40.15;31.52;;;;;;;;;;4205763;34;20604;-60
2021/01/13 13:26:57;;;;;;;43.90;31.50;;;;;;;;;;4206019;34;20113;-58
2021/01/13 13:29:23;;;;;;;37.38;30.27;;;;;;;;;;4219462;34;20129;-58
2021/01/13 13:31:49;;;;;;;40.12;31.33;;;;;;;;;;4219664;34;20148;-56
2021/01/13 13:34:15;;;;;;;41.85;32.72;;;;;;;;;;4219588;34;20125;-55
2021/01/13 13:36:41;;;;;;;41.80;33.95;;;;;;;;;;4219643;34;20125;-56
2021/01/13 13:39:08;;;;;;;42.03;35.80;;;;;;;;;;4219392;34;20126;-59
2021/01/13 13:41:33;;;;;;;44.05;31.75;;;;;;;;;;4219665;34;20121;-59
2021/01/13 13:43:59;;;;;;;32.95;28.98;;;;;;;;;;4206869;34;20244;-61
2021/01/13 13:46:25;;;;;;;31.42;27.80;;;;;;;;;;4206016;34;20487;-57
2021/01/13 13:48:54;;;;;;;34.85;30.00;;;;;;;;;;4205038;34;20186;-60
2021/01/13 13:51:20;;;;;;;36.03;30.80;;;;;;;;;;4205409;34;20132;-57
2021/01/13 13:53:46;;;;;;;35.80;30.35;;;;;;;;;;4204998;34;20451;-56
2021/01/13 13:56:18;;;;;;;34.33;29.73;;;;;;;;;;4205584;34;20615;-60
2021/01/13 13:58:44;;;;;;;38.20;31.70;;;;;;;;;;4205491;34;20090;-60
2021/01/13 14:01:10;;;;;;;34.53;29.25;;;;;;;;;;4202751;34;20115;-58
2021/01/13 14:03:36;;;;;;;32.40;27.50;;;;;;;;;;4205165;34;20132;-57
2021/01/13 14:06:03;;;;;;;37.00;28.23;;;;;;;;;;4204509;34;20442;-57
2021/01/13 14:08:28;;;;;;;30.83;26.48;;;;;;;;;;4205325;34;20094;-55
2021/01/13 14:10:57;;;;;;;31.95;25.65;;;;;;;;;;4192352;34;20094;-55
2021/01/13 14:13:23;;;;;;;30.77;25.77;;;;;;;;;;4205326;34;20232;-56
2021/01/13 14:15:49;;;;;;;37.00;30.17;;;;;;;;;;4212993;34;20614;-60
2021/01/13 14:18:15;;;;;;;41.95;32.33;;;;;;;;;;4219351;34;20438;-58
2021/01/13 14:20:40;;;;;;;46.00;35.17;;;;;;;;;;4210081;34;20110;-58
2021/01/13 14:23:06;;;;;;;51.53;37.33;;;;;;;;;;4205702;34;20133;-56
2021/01/13 14:25:32;;;;;;;42.80;34.53;;;;;;;;;;4205157;34;20141;-57
2021/01/13 14:27:58;;;;;;;43.90;35.65;;;;;;;;;;4205418;34;20125;-58
2021/01/13 14:30:24;;;;;;;35.90;29.35;;;;;;;;;;4205227;34;20102;-58
2021/01/13 14:32:52;;;;;;;32.10;27.52;;;;;;;;;;4205361;34;20117;-58
2021/01/13 14:35:19;;;;;;;33.15;27.55;;;;;;;;;;4205113;34;20510;-58
2021/01/13 14:37:45;;;;;;;33.25;26.30;;;;;;;;;;4204975;34;20106;-59
2021/01/13 14:40:12;;;;;;;34.85;27.00;;;;;;;;;;4206519;34;20332;-59
2021/01/13 14:42:38;;;;;;;33.85;30.12;;;;;;;;;;4192573;34;20222;-59